| time (UTC) | temp C | wind direction | speed KPH | gust KPH | rain 1hr cm | rain 24hr cm | rain mn cm | humidity % | barometer mb |
| 20260506212024 | 13 | 220 | 3.2 | 25.7 | 0.00 | 0.97 | 0.97 | 89 | 1005.6 |
| 20260506211524 | 15 | 198 | 17.7 | 25.7 | 0.00 | 0.97 | 0.97 | 90 | 1005.4 |
| 20260506211013 | 15 | 252 | 12.9 | 20.9 | 0.00 | 0.97 | 0.97 | 90 | 1005.2 |
| 20260506210512 | 15 | 247 | 12.9 | 25.7 | 0.00 | 0.97 | 0.97 | 90 | 1005.3 |
| 20260506210014 | 15 | 238 | 9.7 | 25.7 | 0.00 | 0.97 | 0.97 | 90 | 1005.3 |
| 20260506205513 | 15 | 241 | 14.5 | 24.1 | 0.00 | 1.02 | 0.97 | 90 | 1005.3 |
| 20260506205014 | 15 | 213 | 12.9 | 25.7 | 0.00 | 1.02 | 0.97 | 90 | 1005.1 |
| 20260506204513 | 15 | 256 | 14.5 | 25.7 | 0.00 | 1.02 | 0.97 | 90 | 1005.1 |
| 20260506204013 | 15 | 233 | 11.3 | 19.3 | 0.00 | 1.02 | 0.97 | 90 | 1005.2 |
| 20260506203513 | 15 | 266 | 11.3 | 22.5 | 0.00 | 1.02 | 0.97 | 90 | 1005.1 |
| 20260506203014 | 15 | 245 | 14.5 | 22.5 | 0.00 | 1.02 | 0.97 | 90 | 1005.1 |
| 20260506202513 | 15 | 273 | 14.5 | 22.5 | 0.00 | 1.02 | 0.97 | 90 | 1005.2 |
| 20260506202013 | 15 | 245 | 14.5 | 24.1 | 0.00 | 1.02 | 0.97 | 90 | 1005.2 |
| 20260506201524 | 15 | 226 | 12.9 | 24.1 | 0.00 | 1.02 | 0.97 | 90 | 1005.2 |
| 20260506201014 | 15 | 247 | 11.3 | 24.1 | 0.00 | 1.02 | 0.97 | 91 | 1005.3 |
| 20260506200513 | 15 | 203 | 9.7 | 22.5 | 0.00 | 1.02 | 0.97 | 91 | 1005.3 |
| 20260506200013 | 15 | 235 | 11.3 | 22.5 | 0.00 | 1.02 | 0.97 | 91 | 1005.2 |
| 20260506195513 | 15 | 258 | 11.3 | 27.4 | 0.00 | 1.02 | 0.97 | 91 | 1005.3 |
| 20260506195013 | 15 | 256 | 17.7 | 22.5 | 0.00 | 1.02 | 0.97 | 91 | 1005.3 |
| 20260506194514 | 15 | 271 | 9.7 | 22.5 | 0.00 | 1.02 | 0.97 | 91 | 1005.3 |
| 20260506194015 | 15 | 252 | 14.5 | 22.5 | 0.00 | 1.02 | 0.97 | 91 | 1005.5 |
| 20260506193514 | 15 | 259 | 9.7 | 24.1 | 0.00 | 1.02 | 0.97 | 92 | 1005.4 |
| 20260506193014 | 15 | 241 | 12.9 | 29.0 | 0.00 | 1.02 | 0.97 | 92 | 1005.3 |
| 20260506192514 | 15 | 226 | 14.5 | 29.0 | 0.00 | 1.02 | 0.97 | 92 | 1005.4 |
| 20260506192014 | 14 | 261 | 12.9 | 20.9 | 0.00 | 1.02 | 0.97 | 92 | 1005.6 |
| 20260506191527 | 14 | 291 | 14.5 | 30.6 | 0.00 | 1.02 | 0.97 | 93 | 1005.6 |
| 20260506191026 | 14 | 246 | 17.7 | 30.6 | 0.00 | 1.02 | 0.97 | 93 | 1005.6 |
| 20260506190515 | 14 | 234 | 16.1 | 24.1 | 0.03 | 1.02 | 0.97 | 93 | 1005.7 |
| 20260506190014 | 14 | 257 | 8.0 | 24.1 | 0.03 | 1.02 | 0.97 | 93 | 1005.6 |
| 20260506185514 | 14 | 237 | 9.7 | 19.3 | 0.03 | 1.02 | 0.97 | 93 | 1005.7 |
| 20260506185015 | 14 | 236 | 11.3 | 22.5 | 0.03 | 1.02 | 0.97 | 93 | 1005.7 |
| 20260506184514 | 14 | 219 | 14.5 | 22.5 | 0.03 | 1.02 | 0.97 | 93 | 1005.7 |
| 20260506184014 | 14 | 275 | 11.3 | 20.9 | 0.05 | 1.02 | 0.97 | 94 | 1005.8 |
| 20260506183514 | 14 | 231 | 11.3 | 32.2 | 0.05 | 1.02 | 0.97 | 94 | 1005.8 |
| 20260506183014 | 14 | 245 | 6.4 | 32.2 | 0.05 | 1.02 | 0.97 | 94 | 1005.8 |
| 20260506182515 | 14 | 226 | 9.7 | 22.5 | 0.08 | 1.02 | 0.97 | 94 | 1005.8 |
| 20260506182015 | 14 | 254 | 12.9 | 20.9 | 0.08 | 1.02 | 0.97 | 94 | 1005.9 |
| 20260506181526 | 14 | 314 | 9.7 | 22.5 | 0.08 | 1.02 | 0.97 | 94 | 1005.8 |
| 20260506181014 | 13 | 233 | 11.3 | 24.1 | 0.08 | 1.02 | 0.97 | 94 | 1006.0 |
| 20260506180514 | 13 | 228 | 14.5 | 24.1 | 0.05 | 0.99 | 0.94 | 94 | 1006.1 |
| 20260506180015 | 13 | 244 | 14.5 | 22.5 | 0.08 | 0.99 | 0.94 | 94 | 1006.1 |
| 20260506175526 | 13 | 231 | 12.9 | 22.5 | 0.08 | 0.99 | 0.94 | 94 | 1006.2 |
| 20260506175014 | 13 | 209 | 16.1 | 30.6 | 0.08 | 0.99 | 0.94 | 94 | 1006.3 |
| 20260506174515 | 13 | 245 | 16.1 | 30.6 | 0.10 | 0.99 | 0.94 | 94 | 1006.2 |
| 20260506174015 | 13 | 215 | 6.4 | 20.9 | 0.08 | 0.97 | 0.91 | 94 | 1006.2 |
| 20260506173514 | 13 | 210 | 11.3 | 20.9 | 0.08 | 0.97 | 0.91 | 94 | 1006.3 |
| 20260506173015 | 13 | 205 | 9.7 | 19.3 | 0.08 | 0.97 | 0.91 | 94 | 1006.3 |
| 20260506172516 | 13 | 244 | 8.0 | 29.0 | 0.05 | 0.94 | 0.89 | 93 | 1006.2 |
| 20260506172015 | 13 | 215 | 12.9 | 29.0 | 0.05 | 0.94 | 0.89 | 93 | 1006.2 |
| 20260506171514 | 13 | 217 | 9.7 | 22.5 | 0.05 | 0.94 | 0.89 | 93 | 1006.2 |
| 20260506171028 | 13 | 219 | 11.3 | 22.5 | 0.08 | 0.94 | 0.89 | 93 | 1006.2 |
| 20260506170526 | 13 | 236 | 11.3 | 22.5 | 0.08 | 0.94 | 0.89 | 93 | 1006.1 |
| 20260506170027 | 13 | 233 | 9.7 | 22.5 | 0.08 | 0.91 | 0.86 | 93 | 1006.1 |
| 20260506165514 | 13 | 195 | 11.3 | 20.9 | 0.10 | 0.91 | 0.86 | 93 | 1006.2 |
| 20260506165020 | 13 | 224 | 12.9 | 19.3 | 0.15 | 0.91 | 0.86 | 93 | 1006.3 |
| 20260506164515 | 13 | 233 | 8.0 | 20.9 | 0.18 | 0.89 | 0.84 | 93 | 1006.3 |
| 20260506164015 | 13 | 225 | 11.3 | 20.9 | 0.20 | 0.89 | 0.84 | 92 | 1006.2 |
| 20260506163516 | 13 | 226 | 9.7 | 19.3 | 0.20 | 0.89 | 0.84 | 92 | 1006.2 |
| 20260506163015 | 13 | 197 | 8.0 | 16.1 | 0.25 | 0.89 | 0.84 | 93 | 1006.2 |
| 20260506162515 | 13 | 238 | 8.0 | 12.9 | 0.30 | 0.89 | 0.84 | 93 | 1006.4 |
| 20260506162015 | 13 | 209 | 6.4 | 12.9 | 0.36 | 0.89 | 0.84 | 93 | 1006.3 |
| 20260506161516 | 13 | 208 | 6.4 | 19.3 | 0.36 | 0.86 | 0.81 | 93 | 1006.5 |
| 20260506161016 | 13 | 297 | 9.7 | 19.3 | 0.38 | 0.86 | 0.81 | 93 | 1006.5 |
| 20260506160515 | 13 | 209 | 6.4 | 19.3 | 0.41 | 0.86 | 0.81 | 93 | 1006.7 |
| 20260506160015 | 13 | 223 | 12.9 | 19.3 | 0.41 | 0.84 | 0.79 | 93 | 1006.7 |
| 20260506155524 | 13 | 241 | 11.3 | 19.3 | 0.36 | 0.79 | 0.74 | 93 | 1006.8 |
| 20260506155016 | 13 | 208 | 8.0 | 19.3 | 0.33 | 0.76 | 0.71 | 93 | 1006.8 |
| 20260506154515 | 13 | 240 | 9.7 | 16.1 | 0.30 | 0.71 | 0.66 | 93 | 1006.9 |
| 20260506154015 | 13 | 206 | 6.4 | 16.1 | 0.28 | 0.69 | 0.64 | 93 | 1006.7 |
| 20260506153515 | 13 | 206 | 9.7 | 17.7 | 0.25 | 0.66 | 0.61 | 93 | 1006.9 |
| 20260506153015 | 13 | 228 | 8.0 | 19.3 | 0.25 | 0.64 | 0.58 | 93 | 1007.1 |
| 20260506152515 | 13 | 234 | 12.9 | 25.7 | 0.20 | 0.58 | 0.53 | 92 | 1007.1 |
| 20260506152038 | 13 | 232 | 14.5 | 25.7 | 0.18 | 0.53 | 0.48 | 92 | 1007.0 |
| 20260506151517 | 13 | 230 | 11.3 | 20.9 | 0.18 | 0.51 | 0.46 | 92 | 1006.9 |
| 20260506151015 | 13 | 211 | 9.7 | 17.7 | 0.13 | 0.46 | 0.41 | 92 | 1006.9 |
| 20260506150515 | 13 | 221 | 11.3 | 20.9 | 0.13 | 0.43 | 0.38 | 92 | 1006.9 |
| 20260506150015 | 13 | 214 | 11.3 | 22.5 | 0.13 | 0.43 | 0.38 | 92 | 1006.9 |
| 20260506145515 | 13 | 214 | 12.9 | 22.5 | 0.13 | 0.43 | 0.38 | 92 | 1006.7 |
| 20260506145017 | 13 | 195 | 8.0 | 24.1 | 0.13 | 0.41 | 0.36 | 92 | 1006.7 |
| 20260506144526 | 13 | 224 | 9.7 | 19.3 | 0.15 | 0.41 | 0.36 | 92 | 1006.8 |
| 20260506144015 | 13 | 216 | 9.7 | 24.1 | 0.18 | 0.41 | 0.36 | 92 | 1006.9 |
| 20260506143515 | 13 | 226 | 9.7 | 20.9 | 0.18 | 0.41 | 0.36 | 92 | 1006.9 |
| 20260506143015 | 13 | 222 | 4.8 | 17.7 | 0.15 | 0.38 | 0.33 | 92 | 1006.8 |
| 20260506142515 | 13 | 226 | 6.4 | 17.7 | 0.18 | 0.38 | 0.33 | 92 | 1006.8 |
| 20260506142026 | 13 | 207 | 3.2 | 12.9 | 0.18 | 0.36 | 0.30 | 92 | 1006.9 |
| 20260506141517 | 13 | 167 | 6.4 | 14.5 | 0.15 | 0.33 | 0.28 | 92 | 1007.1 |
| 20260506141015 | 13 | 210 | 6.4 | 17.7 | 0.18 | 0.33 | 0.28 | 92 | 1007.2 |
| 20260506140515 | 13 | 233 | 9.7 | 17.7 | 0.18 | 0.30 | 0.25 | 92 | 1007.2 |
| 20260506140026 | 13 | 202 | 9.7 | 16.1 | 0.20 | 0.30 | 0.25 | 92 | 1007.4 |
| 20260506135516 | 13 | 227 | 9.7 | 22.5 | 0.20 | 0.28 | 0.23 | 92 | 1007.4 |
| 20260506135015 | 13 | 229 | 8.0 | 16.1 | 0.23 | 0.28 | 0.23 | 92 | 1007.5 |
| 20260506134515 | 13 | 191 | 8.0 | 17.7 | 0.20 | 0.25 | 0.20 | 92 | 1007.6 |
| 20260506134016 | 13 | 233 | 9.7 | 17.7 | 0.18 | 0.23 | 0.18 | 92 | 1007.5 |
| 20260506133516 | 13 | 195 | 8.0 | 20.9 | 0.18 | 0.23 | 0.18 | 92 | 1007.5 |
| 20260506133016 | 13 | 233 | 8.0 | 24.1 | 0.15 | 0.20 | 0.15 | 91 | 1007.6 |
| 20260506132516 | 13 | 162 | 11.3 | 24.1 | 0.15 | 0.20 | 0.15 | 91 | 1007.7 |
| 20260506132015 | 13 | 229 | 12.9 | 20.9 | 0.13 | 0.18 | 0.13 | 91 | 1007.8 |
| 20260506131517 | 13 | 246 | 9.7 | 20.9 | 0.13 | 0.18 | 0.13 | 91 | 1007.9 |
| 20260506131016 | 13 | 231 | 11.3 | 19.3 | 0.10 | 0.15 | 0.10 | 90 | 1008.0 |
| 20260506130516 | 13 | 208 | 11.3 | 19.3 | 0.08 | 0.13 | 0.08 | 89 | 1007.9 |
| 20260506130017 | 14 | 217 | 9.7 | 22.5 | 0.05 | 0.10 | 0.05 | 88 | 1007.9 |
| 20260506125516 | 14 | 224 | 12.9 | 24.1 | 0.03 | 0.08 | 0.03 | 87 | 1007.8 |
| 20260506125016 | 14 | 219 | 14.5 | 24.1 | 0.00 | 0.05 | 0.00 | 86 | 1007.8 |
| 20260506124515 | 14 | 223 | 12.9 | 20.9 | 0.00 | 0.05 | 0.00 | 86 | 1007.7 |
| 20260506124016 | 14 | 213 | 12.9 | 24.1 | 0.00 | 0.05 | 0.00 | 85 | 1007.5 |
| 20260506123515 | 15 | 236 | 11.3 | 24.1 | 0.00 | 0.05 | 0.00 | 84 | 1007.4 |
| 20260506123027 | 15 | 221 | 9.7 | 17.7 | 0.00 | 0.05 | 0.00 | 84 | 1007.4 |
| 20260506122516 | 15 | 184 | 9.7 | 17.7 | 0.00 | 0.05 | 0.00 | 83 | 1007.3 |
| 20260506122016 | 15 | 221 | 6.4 | 20.9 | 0.00 | 0.05 | 0.00 | 83 | 1007.2 |
| 20260506121516 | 15 | 225 | 11.3 | 22.5 | 0.00 | 0.05 | 0.00 | 82 | 1007.4 |
| 20260506121027 | 15 | 220 | 11.3 | 24.1 | 0.00 | 0.05 | 0.00 | 82 | 1007.4 |
| 20260506120516 | 15 | 174 | 9.7 | 20.9 | 0.00 | 0.05 | 0.00 | 81 | 1007.5 |
| 20260506120017 | 15 | 177 | 6.4 | 20.9 | 0.00 | 0.05 | 0.00 | 80 | 1007.5 |
| 20260506115516 | 15 | 252 | 8.0 | 24.1 | 0.00 | 0.05 | 0.00 | 80 | 1007.5 |
| 20260506115016 | 15 | 200 | 9.7 | 24.1 | 0.00 | 0.05 | 0.00 | 79 | 1007.5 |
| 20260506114517 | 15 | 230 | 8.0 | 17.7 | 0.00 | 0.05 | 0.00 | 79 | 1007.6 |
| 20260506114016 | 15 | 245 | 8.0 | 16.1 | 0.00 | 0.05 | 0.00 | 78 | 1007.5 |
| 20260506113516 | 15 | 210 | 6.4 | 20.9 | 0.00 | 0.05 | 0.00 | 78 | 1007.4 |
| 20260506113016 | 15 | 228 | 9.7 | 20.9 | 0.00 | 0.05 | 0.00 | 77 | 1007.5 |
| 20260506112516 | 15 | 244 | 8.0 | 19.3 | 0.00 | 0.05 | 0.00 | 77 | 1007.4 |
| 20260506112017 | 15 | 191 | 9.7 | 19.3 | 0.00 | 0.05 | 0.00 | 77 | 1007.3 |
| 20260506111528 | 15 | 229 | 6.4 | 16.1 | 0.00 | 0.05 | 0.00 | 77 | 1007.3 |
| 20260506111017 | 15 | 209 | 4.8 | 19.3 | 0.00 | 0.05 | 0.00 | 77 | 1007.2 |
| 20260506110516 | 15 | 233 | 8.0 | 19.3 | 0.00 | 0.05 | 0.00 | 76 | 1007.3 |
| 20260506110016 | 15 | 210 | 12.9 | 19.3 | 0.00 | 0.05 | 0.00 | 75 | 1007.4 |
| 20260506105516 | 15 | 233 | 4.8 | 17.7 | 0.00 | 0.05 | 0.00 | 74 | 1007.2 |
| 20260506105016 | 15 | 232 | 9.7 | 17.7 | 0.00 | 0.05 | 0.00 | 74 | 1007.3 |
| 20260506104516 | 16 | 217 | 9.7 | 17.7 | 0.00 | 0.05 | 0.00 | 74 | 1007.1 |
| 20260506104016 | 16 | 227 | 6.4 | 20.9 | 0.00 | 0.05 | 0.00 | 73 | 1006.8 |
| 20260506103529 | 16 | 230 | 8.0 | 20.9 | 0.00 | 0.05 | 0.00 | 73 | 1006.7 |
| 20260506103016 | 16 | 188 | 8.0 | 19.3 | 0.00 | 0.05 | 0.00 | 73 | 1006.8 |
| 20260506102517 | 16 | 221 | 8.0 | 22.5 | 0.00 | 0.05 | 0.00 | 72 | 1006.9 |
| 20260506102027 | 16 | 270 | 8.0 | 22.5 | 0.00 | 0.05 | 0.00 | 72 | 1007.0 |
| 20260506101517 | 16 | 198 | 9.7 | 16.1 | 0.00 | 0.05 | 0.00 | 72 | 1006.8 |
| 20260506101028 | 16 | 214 | 8.0 | 16.1 | 0.00 | 0.05 | 0.00 | 71 | 1006.6 |
| 20260506100517 | 16 | 262 | 6.4 | 27.4 | 0.00 | 0.05 | 0.00 | 71 | 1006.8 |
| 20260506100017 | 16 | 221 | 9.7 | 27.4 | 0.00 | 0.05 | 0.00 | 70 | 1007.1 |
| 20260506095517 | 16 | 238 | 6.4 | 16.1 | 0.00 | 0.05 | 0.00 | 70 | 1007.0 |
| 20260506095017 | 16 | 219 | 9.7 | 14.5 | 0.00 | 0.05 | 0.00 | 70 | 1007.1 |
| 20260506094529 | 16 | 281 | 8.0 | 14.5 | 0.00 | 0.05 | 0.00 | 70 | 1007.2 |
| 20260506094017 | 16 | 219 | 8.0 | 14.5 | 0.00 | 0.05 | 0.00 | 70 | 1007.0 |
| 20260506093517 | 16 | 226 | 6.4 | 16.1 | 0.00 | 0.05 | 0.00 | 69 | 1007.0 |
| 20260506093017 | 16 | 216 | 8.0 | 19.3 | 0.00 | 0.05 | 0.00 | 69 | 1006.9 |
| 20260506092540 | 15 | 217 | 8.0 | 19.3 | 0.00 | 0.05 | 0.00 | 69 | 1006.9 |
| 20260506092018 | 16 | 209 | 6.4 | 14.5 | 0.00 | 0.05 | 0.00 | 68 | 1007.1 |
| 20260506091518 | 16 | 243 | 6.4 | 14.5 | 0.00 | 0.05 | 0.00 | 68 | 1007.2 |
| 20260506091018 | 16 | 240 | 9.7 | 14.5 | 0.00 | 0.05 | 0.00 | 67 | 1007.1 |
| 20260506090517 | 16 | 232 | 6.4 | 16.1 | 0.00 | 0.05 | 0.00 | 67 | 1007.2 |
| 20260506090018 | 16 | 205 | 9.7 | 17.7 | 0.00 | 0.05 | 0.00 | 66 | 1007.4 |
| 20260506085518 | 16 | 230 | 8.0 | 17.7 | 0.00 | 0.05 | 0.00 | 66 | 1007.2 |
| 20260506085019 | 16 | 161 | 6.4 | 17.7 | 0.00 | 0.05 | 0.00 | 66 | 1007.1 |
| 20260506084529 | 16 | 210 | 9.7 | 20.9 | 0.00 | 0.05 | 0.00 | 65 | 1007.5 |
| 20260506084018 | 16 | 250 | 11.3 | 20.9 | 0.00 | 0.05 | 0.00 | 65 | 1007.5 |
| 20260506083518 | 16 | 233 | 8.0 | 19.3 | 0.00 | 0.05 | 0.00 | 65 | 1007.5 |
| 20260506083018 | 16 | 217 | 9.7 | 17.7 | 0.00 | 0.05 | 0.00 | 64 | 1007.4 |
| 20260506082529 | 16 | 229 | 8.0 | 22.5 | 0.00 | 0.05 | 0.00 | 64 | 1007.2 |
| 20260506082018 | 16 | 217 | 11.3 | 22.5 | 0.00 | 0.05 | 0.00 | 64 | 1007.5 |
| 20260506081518 | 16 | 253 | 8.0 | 16.1 | 0.00 | 0.05 | 0.00 | 63 | 1007.4 |
| 20260506081018 | 16 | 232 | 6.4 | 17.7 | 0.00 | 0.05 | 0.00 | 63 | 1007.4 |
| 20260506080518 | 16 | 229 | 8.0 | 12.9 | 0.00 | 0.05 | 0.00 | 62 | 1007.3 |
| 20260506073519 | 16 | 226 | 12.9 | 25.7 | 0.00 | 0.05 | 0.00 | 60 | 1007.5 |
| 20260506073018 | 16 | 217 | 8.0 | 17.7 | 0.00 | 0.05 | 0.00 | 60 | 1007.5 |
| 20260506072519 | 16 | 239 | 9.7 | 17.7 | 0.00 | 0.05 | 0.00 | 60 | 1007.5 |
| 20260506072018 | 17 | 229 | 9.7 | 27.4 | 0.00 | 0.05 | 0.00 | 59 | 1007.5 |
| 20260506071518 | 17 | 217 | 14.5 | 27.4 | 0.00 | 0.05 | 0.00 | 59 | 1007.6 |
| 20260506071030 | 17 | 231 | 9.7 | 25.7 | 0.00 | 0.05 | 0.00 | 59 | 1007.6 |
| 20260506070518 | 17 | 238 | 11.3 | 22.5 | 0.00 | 0.05 | 0.00 | 58 | 1007.5 |
| 20260506062019 | 16 | 243 | 6.4 | 20.9 | 0.00 | 0.05 | 0.00 | 59 | 1007.9 |
| 20260506061520 | 16 | 237 | 8.0 | 17.7 | 0.00 | 0.05 | 0.00 | 59 | 1007.9 |
| 20260506061017 | 16 | 232 | 8.0 | 16.1 | 0.00 | 0.05 | 0.00 | 59 | 1008.1 |
| 20260506060518 | 16 | 212 | 6.4 | 14.5 | 0.00 | 0.05 | 0.00 | 59 | 1008.2 |
| 20260506051019 | 16 | 255 | 8.0 | 20.9 | 0.00 | 0.05 | 0.00 | 57 | 1008.4 |
| 20260506050518 | 16 | 223 | 6.4 | 14.5 | 0.00 | 0.05 | 0.00 | 57 | 1008.4 |
| 20260506045019 | 16 | 206 | 4.8 | 19.3 | 0.00 | 0.05 | 0.00 | 57 | 1008.5 |
| 20260506044519 | 16 | 168 | 6.4 | 12.9 | 0.00 | 0.05 | 0.00 | 57 | 1008.6 |
| 20260506044018 | 16 | 223 | 3.2 | 11.3 | 0.00 | 0.05 | 0.00 | 57 | 1008.7 |
| 20260506043519 | 16 | 246 | 3.2 | 11.3 | 0.00 | 0.05 | 0.00 | 57 | 1008.6 |
| 20260506043019 | 16 | 247 | 4.8 | 8.0 | 0.00 | 0.05 | 0.00 | 57 | 1008.7 |
| 20260506042519 | 17 | 200 | 4.8 | 11.3 | 0.00 | 0.05 | 0.00 | 56 | 1008.7 |
| 20260506042019 | 17 | 251 | 4.8 | 11.3 | 0.00 | 0.05 | 0.00 | 56 | 1008.5 |
| 20260506041521 | 17 | 232 | 4.8 | 9.7 | 0.00 | 0.05 | 0.00 | 56 | 1008.6 |
| 20260506041032 | 17 | 266 | 4.8 | 9.7 | 0.00 | 0.05 | 0.00 | 56 | 1008.7 |
| 20260506040519 | 17 | 242 | 4.8 | 8.0 | 0.00 | 0.05 | 0.00 | 56 | 1008.7 |
| 20260506040020 | 17 | 197 | 4.8 | 8.0 | 0.00 | 0.05 | 0.00 | 56 | 1008.7 |
| 20260506035520 | 17 | 231 | 4.8 | 8.0 | 0.00 | 0.05 | 0.05 | 56 | 1008.6 |
| 20260506035019 | 17 | 231 | 4.8 | 9.7 | 0.00 | 0.05 | 0.05 | 56 | 1008.8 |
| 20260506034519 | 17 | 231 | 3.2 | 12.9 | 0.00 | 0.05 | 0.05 | 55 | 1008.6 |
| 20260506034041 | 17 | 222 | 6.4 | 12.9 | 0.00 | 0.05 | 0.05 | 55 | 1008.7 |
| 20260506033519 | 17 | 229 | 6.4 | 12.9 | 0.00 | 0.05 | 0.05 | 55 | 1008.8 |
| 20260506033021 | 17 | 265 | 4.8 | 8.0 | 0.00 | 0.05 | 0.05 | 55 | 1008.7 |
| 20260506032530 | 17 | 212 | 4.8 | 8.0 | 0.00 | 0.05 | 0.05 | 54 | 1008.7 |
| 20260506032019 | 17 | 248 | 3.2 | 8.0 | 0.00 | 0.05 | 0.05 | 54 | 1008.7 |
| 20260506031520 | 18 | 219 | 4.8 | 6.4 | 0.00 | 0.05 | 0.05 | 54 | 1008.7 |
| 20260506031041 | 18 | 229 | 3.2 | 11.3 | 0.00 | 0.05 | 0.05 | 54 | 1008.6 |
| 20260506030531 | 18 | 229 | 4.8 | 11.3 | 0.00 | 0.05 | 0.05 | 53 | 1008.7 |
| 20260506030019 | 18 | 223 | 8.0 | 11.3 | 0.00 | 0.05 | 0.05 | 53 | 1008.8 |
| 20260506025519 | 18 | 236 | 8.0 | 11.3 | 0.00 | 0.05 | 0.05 | 53 | 1008.6 |
| 20260506025019 | 18 | 226 | 4.8 | 11.3 | 0.00 | 0.05 | 0.05 | 53 | 1008.6 |
| 20260506024519 | 18 | 220 | 8.0 | 12.9 | 0.00 | 0.05 | 0.05 | 52 | 1008.5 |
| 20260506024019 | 18 | 214 | 8.0 | 16.1 | 0.00 | 0.05 | 0.05 | 52 | 1008.5 |
| 20260506023531 | 18 | 240 | 8.0 | 16.1 | 0.00 | 0.05 | 0.05 | 51 | 1008.7 |
| 20260506023019 | 19 | 235 | 9.7 | 17.7 | 0.00 | 0.05 | 0.05 | 51 | 1008.6 |
| 20260506022519 | 19 | 236 | 9.7 | 17.7 | 0.00 | 0.05 | 0.05 | 51 | 1008.7 |
| 20260506022030 | 19 | 238 | 11.3 | 16.1 | 0.00 | 0.05 | 0.05 | 51 | 1008.8 |
| 20260506021531 | 19 | 226 | 9.7 | 17.7 | 0.00 | 0.05 | 0.05 | 50 | 1008.8 |
| 20260506021019 | 19 | 233 | 8.0 | 17.7 | 0.00 | 0.05 | 0.05 | 50 | 1008.7 |
| 20260506020542 | 19 | 240 | 8.0 | 17.7 | 0.00 | 0.05 | 0.05 | 50 | 1008.8 |
| 20260506020018 | 20 | 210 | 9.7 | 16.1 | 0.00 | 0.05 | 0.05 | 50 | 1008.8 |
| 20260506015519 | 20 | 235 | 9.7 | 16.1 | 0.00 | 0.05 | 0.05 | 50 | 1008.6 |
| 20260506015019 | 20 | 225 | 8.0 | 16.1 | 0.00 | 0.05 | 0.05 | 49 | 1008.8 |
| 20260506014520 | 20 | 260 | 6.4 | 14.5 | 0.00 | 0.05 | 0.05 | 49 | 1008.7 |
| 20260506014043 | 20 | 193 | 8.0 | 19.3 | 0.00 | 0.05 | 0.05 | 49 | 1008.6 |
| 20260506013519 | 20 | 248 | 8.0 | 22.5 | 0.00 | 0.05 | 0.05 | 49 | 1008.5 |
| 20260506013012 | 20 | 236 | 9.7 | 17.7 | 0.00 | 0.05 | 0.05 | 49 | 1008.5 |
| 20260506012512 | 20 | 226 | 4.8 | 14.5 | 0.00 | 0.05 | 0.05 | 49 | 1008.4 |
| 20260506012012 | 20 | 242 | 6.4 | 14.5 | 0.00 | 0.05 | 0.05 | 48 | 1008.4 |
| 20260506011513 | 20 | 219 | 9.7 | 14.5 | 0.00 | 0.05 | 0.05 | 48 | 1008.4 |
| 20260506011025 | 20 | 213 | 6.4 | 17.7 | 0.00 | 0.05 | 0.05 | 47 | 1008.3 |
| 20260506010513 | 20 | 243 | 9.7 | 17.7 | 0.00 | 0.05 | 0.05 | 46 | 1008.2 |
| 20260506010013 | 20 | 236 | 8.0 | 14.5 | 0.00 | 0.05 | 0.05 | 46 | 1008.2 |
| 20260506005513 | 21 | 224 | 8.0 | 17.7 | 0.00 | 0.05 | 0.05 | 45 | 1008.2 |
| 20260506005012 | 21 | 232 | 8.0 | 17.7 | 0.00 | 0.05 | 0.05 | 44 | 1008.1 |
| 20260506004524 | 21 | 229 | 9.7 | 17.7 | 0.00 | 0.05 | 0.05 | 44 | 1008.0 |
| 20260506004013 | 21 | 259 | 6.4 | 12.9 | 0.00 | 0.05 | 0.05 | 44 | 1008.0 |
| 20260506003513 | 21 | 238 | 6.4 | 19.3 | 0.00 | 0.05 | 0.05 | 44 | 1008.1 |
| 20260506003013 | 21 | 276 | 12.9 | 19.3 | 0.00 | 0.05 | 0.05 | 43 | 1007.9 |
| 20260506002514 | 21 | 221 | 11.3 | 20.9 | 0.00 | 0.05 | 0.05 | 44 | 1007.8 |
| 20260506002023 | 21 | 230 | 9.7 | 20.9 | 0.00 | 0.05 | 0.05 | 44 | 1007.7 |
| 20260506001524 | 21 | 216 | 9.7 | 24.1 | 0.00 | 0.05 | 0.05 | 44 | 1007.6 |
| 20260506001024 | 21 | 224 | 11.3 | 29.0 | 0.00 | 0.05 | 0.05 | 43 | 1007.7 |
| 20260506000525 | 21 | 226 | 17.7 | 29.0 | 0.00 | 0.05 | 0.05 | 43 | 1007.7 |
| 20260505235012 | 21 | 215 | 12.9 | 22.5 | 0.00 | 0.05 | 0.05 | 44 | 1007.6 |
| 20260505234513 | 21 | 241 | 12.9 | 20.9 | 0.00 | 0.05 | 0.05 | 43 | 1007.7 |
| 20260505234014 | 21 | 240 | 14.5 | 19.3 | 0.00 | 0.05 | 0.05 | 44 | 1007.5 |
| 20260505233513 | 21 | 234 | 11.3 | 22.5 | 0.00 | 0.05 | 0.05 | 44 | 1007.6 |
| 20260505233024 | 21 | 230 | 11.3 | 22.5 | 0.00 | 0.05 | 0.05 | 45 | 1007.4 |
| 20260505232513 | 21 | 221 | 9.7 | 27.4 | 0.00 | 0.05 | 0.05 | 45 | 1007.5 |
| 20260505232024 | 21 | 224 | 14.5 | 24.1 | 0.00 | 0.05 | 0.05 | 45 | 1007.3 |
| 20260505231512 | 21 | 226 | 14.5 | 24.1 | 0.00 | 0.05 | 0.05 | 45 | 1007.5 |
| 20260505231013 | 21 | 242 | 14.5 | 22.5 | 0.00 | 0.05 | 0.05 | 44 | 1007.5 |
| 20260505230513 | 21 | 202 | 12.9 | 20.9 | 0.00 | 0.05 | 0.05 | 45 | 1007.4 |
| 20260505230013 | 21 | 233 | 8.0 | 20.9 | 0.00 | 0.05 | 0.05 | 46 | 1007.5 |
| 20260505225513 | 21 | 240 | 9.7 | 19.3 | 0.00 | 0.05 | 0.05 | 46 | 1007.5 |
| 20260505225024 | 21 | 219 | 11.3 | 25.7 | 0.00 | 0.05 | 0.05 | 45 | 1007.4 |
| 20260505224513 | 21 | 202 | 11.3 | 20.9 | 0.00 | 0.05 | 0.05 | 45 | 1007.2 |
| 20260505224013 | 21 | 255 | 12.9 | 24.1 | 0.00 | 0.05 | 0.05 | 45 | 1007.1 |
| 20260505223524 | 21 | 210 | 8.0 | 19.3 | 0.00 | 0.05 | 0.05 | 46 | 1007.0 |
| 20260505223013 | 21 | 225 | 11.3 | 19.3 | 0.00 | 0.05 | 0.05 | 46 | 1007.0 |
| 20260505222514 | 21 | 236 | 9.7 | 16.1 | 0.00 | 0.05 | 0.05 | 46 | 1007.2 |
| 20260505222013 | 21 | 221 | 8.0 | 19.3 | 0.00 | 0.05 | 0.05 | 46 | 1007.3 |
| 20260505221514 | 21 | 230 | 11.3 | 22.5 | 0.00 | 0.05 | 0.05 | 46 | 1007.3 |
| 20260505221013 | 21 | 226 | 9.7 | 24.1 | 0.00 | 0.05 | 0.05 | 46 | 1007.2 |
| 20260505220513 | 21 | 243 | 14.5 | 30.6 | 0.00 | 0.05 | 0.05 | 45 | 1007.2 |
| 20260505220024 | 21 | 198 | 17.7 | 35.4 | 0.00 | 0.05 | 0.05 | 45 | 1007.2 |
| 20260505215514 | 21 | 229 | 12.9 | 24.1 | 0.05 | 0.05 | 0.05 | 46 | 1007.2 |
| 20260505215013 | 21 | 233 | 11.3 | 24.1 | 0.05 | 0.05 | 0.05 | 47 | 1007.2 |
| 20260505214513 | 21 | 236 | 14.5 | 24.1 | 0.05 | 0.05 | 0.05 | 47 | 1007.2 |
| 20260505214013 | 21 | 219 | 12.9 | 27.4 | 0.05 | 0.05 | 0.05 | 49 | 1007.2 |
| 20260505213514 | 20 | 217 | 16.1 | 27.4 | 0.05 | 0.05 | 0.05 | 51 | 1007.0 |
| 20260505212514 | 20 | 242 | 4.8 | 14.5 | 0.05 | 0.05 | 0.05 | 63 | 1006.9 |